createdAt,value
2023-10-03T00:04:44.198Z,11.58
2023-10-03T00:09:37.018Z,11.60
2023-10-03T00:14:28.660Z,11.59
2023-10-03T00:19:20.782Z,11.60
2023-10-03T00:24:12.354Z,11.61
2023-10-03T00:29:05.411Z,11.63
2023-10-03T00:33:57.123Z,11.67
2023-10-03T00:38:49.089Z,11.69
2023-10-03T00:43:54.332Z,11.72
2023-10-03T00:48:48.494Z,11.70
2023-10-03T00:53:40.254Z,11.70
2023-10-03T00:58:33.710Z,11.70
2023-10-03T01:03:33.754Z,11.72
2023-10-03T01:08:26.742Z,11.73
2023-10-03T01:13:20.704Z,11.72
2023-10-03T01:18:15.276Z,11.68
2023-10-03T01:23:11.523Z,11.73
2023-10-03T01:28:03.314Z,11.70
2023-10-03T01:32:57.544Z,11.71
2023-10-03T01:37:50.836Z,11.71
2023-10-03T01:42:46.437Z,11.71
2023-10-03T01:47:40.735Z,11.73
2023-10-03T01:52:32.461Z,11.72
2023-10-03T01:57:24.080Z,11.74
2023-10-03T02:02:16.803Z,11.70
2023-10-03T02:07:08.584Z,11.69
2023-10-03T02:12:00.735Z,11.68
2023-10-03T02:16:52.751Z,11.67
2023-10-03T02:21:44.362Z,11.64
2023-10-03T02:26:37.638Z,11.62
2023-10-03T02:31:29.359Z,11.59
2023-10-03T02:36:20.993Z,11.57
2023-10-03T02:41:14.137Z,11.55
2023-10-03T02:46:07.927Z,11.52
2023-10-03T02:50:59.736Z,11.45
2023-10-03T02:55:53.181Z,11.45
2023-10-03T03:00:47.422Z,11.39
2023-10-03T03:05:39.804Z,11.37
2023-10-03T03:10:32.240Z,11.34
2023-10-03T03:15:25.167Z,11.31
2023-10-03T03:20:19.741Z,11.27
2023-10-03T03:25:11.487Z,11.22
2023-10-03T03:30:26.170Z,11.19
2023-10-03T03:35:19.146Z,11.14
2023-10-03T03:40:14.669Z,11.12
2023-10-03T03:45:07.446Z,11.09
2023-10-03T03:50:02.901Z,11.03
2023-10-03T03:54:55.308Z,10.96
2023-10-03T03:59:48.659Z,10.93
2023-10-03T04:04:40.675Z,10.86
2023-10-03T04:09:32.968Z,10.79
2023-10-03T04:14:24.657Z,10.70
2023-10-03T04:19:16.724Z,10.56
2023-10-03T04:24:11.288Z,10.51
2023-10-03T04:29:03.160Z,10.47
2023-10-03T04:33:55.381Z,10.42
2023-10-03T04:38:47.050Z,10.37
2023-10-03T04:43:40.645Z,10.30
2023-10-03T04:48:32.396Z,10.27
2023-10-03T04:53:24.472Z,10.21
2023-10-03T04:58:16.808Z,10.17
2023-10-03T05:03:10.869Z,10.14
2023-10-03T05:08:03.516Z,10.11
2023-10-03T05:12:55.080Z,10.02
2023-10-03T05:17:47.822Z,9.99
2023-10-03T05:22:39.405Z,9.93
2023-10-03T05:27:31.219Z,9.88
2023-10-03T05:32:23.097Z,9.81
2023-10-03T05:37:15.120Z,9.73
2023-10-03T05:42:06.850Z,9.73
2023-10-03T05:46:58.541Z,9.68
2023-10-03T05:51:50.361Z,9.66
2023-10-03T05:56:42.122Z,9.64
2023-10-03T06:01:33.790Z,9.64
2023-10-03T06:06:25.367Z,9.63
2023-10-03T06:11:18.052Z,9.63
2023-10-03T06:16:09.625Z,9.65
2023-10-03T06:21:01.251Z,9.63
2023-10-03T06:25:52.899Z,9.65
2023-10-03T06:30:44.603Z,9.69
2023-10-03T06:35:36.815Z,9.73
2023-10-03T06:40:28.583Z,9.76
2023-10-03T06:45:22.425Z,9.80
2023-10-03T06:50:18.632Z,9.87
2023-10-03T06:55:12.617Z,9.95
2023-10-03T07:00:04.714Z,10.02
2023-10-03T07:04:56.438Z,10.06
2023-10-03T07:09:48.014Z,10.10
2023-10-03T07:14:39.729Z,10.18
2023-10-03T07:19:31.662Z,10.27
2023-10-03T07:24:25.464Z,10.31
2023-10-03T07:29:18.593Z,10.42
2023-10-03T07:34:10.640Z,10.57
2023-10-03T07:39:02.636Z,10.87
2023-10-03T07:43:54.450Z,11.29
2023-10-03T07:48:46.494Z,11.83
2023-10-03T07:53:38.288Z,12.51
2023-10-03T07:58:33.927Z,13.03
2023-10-03T08:03:29.781Z,13.33
2023-10-03T08:08:23.505Z,13.52
2023-10-03T08:13:18.248Z,13.78
2023-10-03T08:18:19.410Z,13.73
2023-10-03T08:23:11.092Z,13.70
2023-10-03T08:28:09.322Z,13.73
2023-10-03T08:33:06.282Z,13.81
2023-10-03T08:37:58.391Z,13.71
2023-10-03T08:42:54.113Z,13.59
2023-10-03T08:47:51.582Z,13.55
2023-10-03T08:52:51.365Z,13.57
2023-10-03T08:57:49.152Z,13.68
2023-10-03T09:02:51.643Z,14.39
2023-10-03T09:07:45.752Z,15.28
2023-10-03T09:12:38.306Z,16.10
2023-10-03T09:17:30.087Z,16.72
2023-10-03T09:22:32.456Z,17.20
2023-10-03T09:27:30.704Z,17.60
2023-10-03T09:32:24.728Z,17.91
2023-10-03T09:37:18.458Z,18.28
2023-10-03T09:42:17.217Z,18.45
2023-10-03T09:47:09.452Z,18.51
2023-10-03T09:52:01.064Z,18.78
2023-10-03T09:56:56.725Z,19.07
2023-10-03T10:01:48.728Z,19.31
2023-10-03T10:06:52.313Z,19.65
2023-10-03T10:12:12.615Z,19.89
2023-10-03T10:17:07.343Z,20.18
2023-10-03T10:22:00.553Z,20.15
2023-10-03T10:26:54.078Z,19.85
2023-10-03T10:31:46.275Z,19.49
2023-10-03T10:37:03.624Z,19.59
2023-10-03T10:42:15.839Z,19.73
2023-10-03T10:47:07.501Z,19.71
2023-10-03T10:52:01.303Z,19.62
2023-10-03T10:57:04.923Z,19.65
2023-10-03T11:01:59.028Z,19.71
2023-10-03T11:06:53.439Z,19.83
2023-10-03T11:11:45.514Z,19.98
2023-10-03T11:16:37.213Z,20.12
2023-10-03T11:21:31.287Z,20.17
2023-10-03T11:26:23.001Z,20.19
2023-10-03T11:31:14.717Z,20.06
2023-10-03T11:36:08.272Z,19.49
2023-10-03T11:41:01.224Z,19.18
2023-10-03T11:45:59.452Z,18.85
2023-10-03T11:50:51.308Z,18.48
2023-10-03T11:55:43.828Z,18.46
2023-10-03T12:00:36.553Z,18.53
2023-10-03T12:05:28.834Z,18.27
2023-10-03T12:10:21.532Z,18.07
2023-10-03T12:15:14.088Z,17.97
2023-10-03T12:20:06.814Z,17.99
2023-10-03T12:24:58.396Z,18.03
2023-10-03T12:29:50.606Z,17.90
2023-10-03T12:34:43.576Z,17.75
2023-10-03T12:39:37.206Z,17.60
2023-10-03T12:44:28.898Z,17.43
2023-10-03T12:49:21.528Z,17.15
2023-10-03T12:54:14.707Z,16.86
2023-10-03T12:59:06.867Z,16.71
2023-10-03T13:03:58.617Z,16.73
2023-10-03T13:08:53.211Z,16.77
2023-10-03T13:13:48.256Z,16.91
2023-10-03T13:18:40.822Z,17.05
2023-10-03T13:23:32.568Z,17.13
2023-10-03T13:28:26.369Z,17.21
2023-10-03T13:33:18.140Z,17.42
2023-10-03T13:38:10.177Z,17.59
2023-10-03T13:43:02.329Z,17.61
2023-10-03T13:47:57.076Z,17.47
2023-10-03T13:52:51.983Z,17.35
2023-10-03T13:57:45.572Z,17.21
2023-10-03T14:02:37.179Z,17.08
2023-10-03T14:07:30.930Z,17.07
2023-10-03T14:12:22.887Z,16.97
2023-10-03T14:17:14.560Z,16.93
2023-10-03T14:22:06.381Z,17.04
2023-10-03T14:26:58.398Z,16.98
2023-10-03T14:31:51.024Z,16.88
2023-10-03T14:36:44.637Z,16.76
2023-10-03T14:41:36.549Z,16.60
2023-10-03T14:46:28.912Z,16.47
2023-10-03T14:51:20.543Z,16.41
2023-10-03T14:56:12.472Z,16.37
2023-10-03T15:01:05.465Z,16.36
2023-10-03T15:05:57.331Z,16.38
2023-10-03T15:10:49.004Z,16.46
2023-10-03T15:15:40.665Z,16.50
2023-10-03T15:20:32.418Z,16.42
2023-10-03T15:25:24.207Z,16.36
2023-10-03T15:30:18.198Z,16.26
2023-10-03T15:35:10.079Z,16.15
2023-10-03T15:40:02.634Z,16.10
2023-10-03T15:49:59.819Z,16.03
2023-10-03T15:54:51.599Z,15.91
2023-10-03T15:59:43.911Z,15.78
2023-10-03T16:04:37.372Z,15.67
2023-10-03T16:09:29.218Z,15.64
2023-10-03T16:14:21.684Z,15.60
2023-10-03T16:19:14.526Z,15.58
2023-10-03T16:24:07.405Z,15.61
2023-10-03T16:28:59.202Z,15.60
2023-10-03T16:33:50.861Z,15.54
2023-10-03T16:38:43.266Z,15.46
2023-10-03T16:43:36.538Z,15.40
2023-10-03T16:48:28.695Z,15.28
2023-10-03T16:53:25.310Z,15.18
2023-10-03T16:58:17.425Z,15.12
2023-10-03T17:03:09.304Z,15.02
2023-10-03T17:08:01.489Z,14.93
2023-10-03T17:12:54.378Z,14.80
2023-10-03T17:17:50.918Z,14.73
2023-10-03T17:22:44.422Z,14.68
2023-10-03T17:27:37.376Z,14.58
2023-10-03T17:32:30.614Z,14.46
2023-10-03T17:37:22.442Z,14.37
2023-10-03T17:42:14.121Z,14.28
2023-10-03T17:47:05.938Z,14.17
2023-10-03T17:51:57.827Z,14.09
2023-10-03T17:56:49.555Z,14.00
2023-10-03T18:01:41.616Z,13.88
2023-10-03T18:06:33.257Z,13.77
2023-10-03T18:11:24.905Z,13.69
2023-10-03T18:16:16.594Z,13.59
2023-10-03T18:21:12.239Z,13.54
2023-10-03T18:26:12.972Z,13.44
2023-10-03T18:31:05.405Z,13.32
2023-10-03T18:35:57.816Z,13.26
2023-10-03T18:40:50.107Z,13.18
2023-10-03T18:45:55.218Z,13.14
2023-10-03T18:50:50.685Z,13.12
2023-10-03T18:55:42.309Z,13.08
2023-10-03T19:00:34.133Z,13.03
2023-10-03T19:05:25.729Z,12.98
2023-10-03T19:10:17.379Z,12.95
2023-10-03T19:15:11.034Z,12.88
2023-10-03T19:20:05.035Z,12.82
2023-10-03T19:24:57.070Z,12.77
2023-10-03T19:29:49.394Z,12.70
2023-10-03T19:34:41.060Z,12.67
2023-10-03T19:39:33.376Z,12.63
2023-10-03T19:44:27.543Z,12.61
2023-10-03T19:49:19.236Z,12.57
2023-10-03T19:54:10.896Z,12.53
2023-10-03T19:59:03.376Z,12.48
2023-10-03T20:03:55.354Z,12.44
2023-10-03T20:08:48.298Z,12.38
2023-10-03T20:13:46.231Z,12.33
2023-10-03T20:18:38.888Z,12.29
2023-10-03T20:23:32.769Z,12.21
2023-10-03T20:28:24.560Z,12.18
2023-10-03T20:33:16.400Z,12.15
2023-10-03T20:38:08.166Z,12.11
2023-10-03T20:42:59.756Z,12.10
2023-10-03T20:47:51.397Z,12.12
2023-10-03T20:52:43.183Z,12.09
2023-10-03T20:57:34.924Z,12.07
2023-10-03T21:02:28.537Z,12.06
2023-10-03T21:07:23.185Z,12.02
2023-10-03T21:12:14.956Z,12.02
2023-10-03T21:17:07.587Z,11.99
2023-10-03T21:22:00.736Z,11.99
2023-10-03T21:26:52.419Z,11.97
2023-10-03T21:31:44.054Z,11.95
2023-10-03T21:36:36.530Z,11.93
2023-10-03T21:41:28.156Z,11.92
2023-10-03T21:46:19.847Z,11.89
2023-10-03T21:51:11.720Z,11.88
2023-10-03T21:56:08.408Z,11.86
2023-10-03T22:01:00.583Z,11.82
2023-10-03T22:05:52.329Z,11.81
2023-10-03T22:10:47.213Z,11.78
2023-10-03T22:15:38.992Z,11.78
2023-10-03T22:20:30.808Z,11.75
2023-10-03T22:25:22.907Z,11.70
2023-10-03T22:30:17.410Z,11.68
2023-10-03T22:35:09.868Z,11.65
2023-10-03T22:40:05.014Z,11.62
2023-10-03T22:44:56.628Z,11.64
2023-10-03T22:49:48.210Z,11.67
2023-10-03T22:54:39.923Z,11.71
2023-10-03T22:59:31.580Z,11.73
2023-10-03T23:04:23.279Z,11.76
2023-10-03T23:09:15.479Z,11.79
2023-10-03T23:14:07.273Z,11.77
2023-10-03T23:18:59.266Z,11.82
2023-10-03T23:23:52.670Z,11.82
2023-10-03T23:28:44.247Z,11.85
2023-10-03T23:33:35.907Z,11.86
2023-10-03T23:38:27.528Z,11.91
2023-10-03T23:43:19.151Z,11.91
2023-10-03T23:48:11.192Z,11.94
2023-10-03T23:53:07.290Z,11.96
2023-10-03T23:58:01.650Z,11.97
